Time;durP1;ratioP1;P1;durP2;ratioP2;P2;SDS_P1;SDS_P2;PMS_P1;PMS_P2;Temp;Humidity;BMP_temperature;BMP_pressure;BME280_temperature;BME280_humidity;BME280_pressure;Samples;Min_cycle;Max_cycle;Signal;HPM_P1;HPM_P2
2022/01/01 00:00:16;;;;;;;63.08;33.90;;;;;;;1.27;100.00;101728.50;5029998;28;20053;-70
2022/01/01 00:02:45;;;;;;;85.88;42.92;;;;;;;1.28;100.00;101730.19;5029890;28;20056;-70
2022/01/01 00:05:14;;;;;;;103.80;48.25;;;;;;;1.22;100.00;101720.16;5032118;28;20050;-70
2022/01/01 00:07:44;;;;;;;126.60;50.60;;;;;;;1.13;100.00;101724.00;5029815;28;20500;-70
2022/01/01 00:10:12;;;;;;;119.28;49.03;;;;;;;1.05;100.00;101717.69;5030323;28;20042;-70
2022/01/01 00:12:46;;;;;;;92.95;44.80;;;;;;;1.18;100.00;101721.56;5028303;28;20050;-71
2022/01/01 00:15:17;;;;;;;98.28;41.03;;;;;;;1.09;100.00;101714.59;5028779;28;20105;-71
2022/01/01 00:17:45;;;;;;;78.28;39.50;;;;;;;1.14;100.00;101707.63;5028354;28;20049;-70
2022/01/01 00:20:13;;;;;;;86.53;37.72;;;;;;;1.19;100.00;101715.16;5031899;28;20054;-70
2022/01/01 00:22:42;;;;;;;66.28;34.25;;;;;;;1.17;100.00;101711.81;5033552;28;20050;-71
2022/01/01 00:25:13;;;;;;;63.30;30.60;;;;;;;1.11;100.00;101713.41;5030483;28;20064;-70
2022/01/01 00:27:41;;;;;;;62.75;28.90;;;;;;;1.17;100.00;101711.81;5031766;28;20049;-71
2022/01/01 00:30:10;;;;;;;73.10;26.17;;;;;;;1.21;100.00;101718.50;5030856;28;20060;-71
2022/01/01 00:32:38;;;;;;;48.65;25.92;;;;;;;1.45;100.00;101711.06;5032055;28;20061;-71
2022/01/01 00:35:07;;;;;;;49.92;25.95;;;;;;;1.60;100.00;101711.88;5031524;28;20049;-71
2022/01/01 00:37:35;;;;;;;46.13;25.45;;;;;;;1.47;100.00;101714.44;5033888;28;20049;-67
2022/01/01 00:40:03;;;;;;;55.92;24.27;;;;;;;1.31;100.00;101708.25;5033590;28;20393;-71
2022/01/01 00:42:31;;;;;;;65.00;23.63;;;;;;;1.26;100.00;101705.28;5033937;28;20050;-72
2022/01/01 00:44:59;;;;;;;47.67;22.80;;;;;;;1.26;100.00;101699.88;5034195;28;20045;-71
2022/01/01 00:47:27;;;;;;;64.88;27.00;;;;;;;1.55;100.00;101699.97;5034548;28;20060;-70
2022/01/01 00:49:55;;;;;;;59.10;27.02;;;;;;;1.34;100.00;101702.47;5034753;28;20054;-70
2022/01/01 00:52:23;;;;;;;52.63;27.27;;;;;;;1.34;100.00;101699.78;5033020;28;20050;-71
2022/01/01 00:54:51;;;;;;;62.78;28.60;;;;;;;1.16;100.00;101696.66;5033288;28;20400;-71
2022/01/01 00:57:19;;;;;;;63.15;29.10;;;;;;;1.27;100.00;101709.63;5034186;28;20121;-71
2022/01/01 00:59:47;;;;;;;76.28;31.20;;;;;;;1.23;100.00;101715.59;5034296;28;20053;-71
2022/01/01 01:02:15;;;;;;;76.00;36.15;;;;;;;1.31;100.00;101707.41;5034288;28;20404;-70
2022/01/01 01:04:43;;;;;;;67.38;34.38;;;;;;;1.50;100.00;101714.03;5034025;28;20404;-70
2022/01/01 01:07:12;;;;;;;73.18;36.30;;;;;;;1.47;100.00;101712.56;5033618;28;20046;-70
2022/01/01 01:09:40;;;;;;;79.95;34.35;;;;;;;1.31;100.00;101719.03;5033882;28;20049;-70
2022/01/01 01:12:08;;;;;;;76.65;32.95;;;;;;;1.25;100.00;101717.09;5033784;28;20053;-71
2022/01/01 01:14:40;;;;;;;58.75;29.77;;;;;;;1.29;100.00;101725.63;5033505;28;20543;-70
2022/01/01 01:17:10;;;;;;;58.72;30.42;;;;;;;1.32;100.00;101718.00;5033527;28;20056;-71
2022/01/01 01:19:38;;;;;;;52.03;25.80;;;;;;;1.24;100.00;101712.72;5033254;28;20058;-71
2022/01/01 01:22:06;;;;;;;58.67;26.80;;;;;;;1.18;100.00;101719.69;5050627;28;20060;-71
2022/01/01 01:24:35;;;;;;;49.90;27.63;;;;;;;1.32;100.00;101718.00;5053211;28;20400;-71
2022/01/01 01:27:04;;;;;;;63.78;26.70;;;;;;;1.17;100.00;101722.59;5051449;28;20053;-70
2022/01/01 01:29:36;;;;;;;50.22;26.35;;;;;;;1.24;100.00;101715.44;5053961;28;20408;-70
2022/01/01 01:32:05;;;;;;;62.33;25.88;;;;;;;1.20;100.00;101716.81;5052961;28;20045;-70
2022/01/01 01:34:33;;;;;;;74.22;28.00;;;;;;;1.15;100.00;101706.63;5053171;28;20051;-70
2022/01/01 01:37:01;;;;;;;65.55;28.13;;;;;;;1.14;100.00;101704.09;5049530;28;20056;-71
2022/01/01 01:39:29;;;;;;;49.97;25.70;;;;;;;1.29;100.00;101712.16;5026984;28;20055;-70
2022/01/01 01:42:00;;;;;;;69.43;28.33;;;;;;;1.11;100.00;101723.38;5050108;28;20053;-70
2022/01/01 01:44:32;;;;;;;47.38;27.08;;;;;;;1.16;100.00;101715.53;5047381;28;20048;-70
2022/01/01 01:47:02;;;;;;;53.28;26.67;;;;;;;1.23;100.00;101710.22;5045558;28;20053;-70
2022/01/01 01:49:30;;;;;;;59.03;30.27;;;;;;;1.48;100.00;101710.72;5048952;28;20045;-70
2022/01/01 01:51:58;;;;;;;71.05;27.85;;;;;;;1.33;100.00;101714.28;5044396;28;20499;-70
2022/01/01 01:54:26;;;;;;;66.40;27.60;;;;;;;1.27;100.00;101706.94;5036620;28;20380;-70
2022/01/01 01:56:55;;;;;;;70.43;26.42;;;;;;;1.07;100.00;101710.25;5050035;28;20051;-70
2022/01/01 01:59:24;;;;;;;77.93;31.23;;;;;;;1.05;100.00;101708.75;5046349;28;20500;-70
2022/01/01 02:01:52;;;;;;;91.28;31.08;;;;;;;1.15;100.00;101714.69;5048828;28;20057;-70
2022/01/01 02:04:21;;;;;;;72.07;28.70;;;;;;;1.19;100.00;101699.78;5048443;28;20060;-70
2022/01/01 02:06:49;;;;;;;88.93;29.52;;;;;;;1.09;100.00;101701.13;5028996;28;20056;-70
2022/01/01 02:09:17;;;;;;;70.80;31.25;;;;;;;1.13;100.00;101705.13;5048475;28;20052;-70
2022/01/01 02:11:46;;;;;;;89.03;32.00;;;;;;;1.13;100.00;101707.81;5039990;28;20047;-70
2022/01/01 02:17:09;;;;;;;82.88;34.33;;;;;;;1.30;100.00;101695.78;5020574;28;20507;-70
2022/01/01 02:20:01;;;;;;;97.88;32.20;;;;;;;1.32;100.00;101699.13;5044426;28;20101;-70
2022/01/01 02:22:47;;;;;;;76.32;34.03;;;;;;;1.29;100.00;101696.81;5048511;28;20064;-70
2022/01/01 02:25:18;;;;;;;69.55;33.25;;;;;;;1.33;100.00;101700.78;5046497;28;20055;-70
2022/01/01 02:27:46;;;;;;;81.10;32.97;;;;;;;1.28;100.00;101705.91;5040919;28;20403;-70
2022/01/01 02:30:16;;;;;;;67.50;31.60;;;;;;;1.28;100.00;101714.00;5048989;28;20052;-70
2022/01/01 02:32:44;;;;;;;70.93;30.85;;;;;;;1.26;100.00;101704.47;5046090;28;20460;-70
2022/01/01 02:35:15;;;;;;;72.03;31.90;;;;;;;1.30;100.00;101706.56;5044050;28;20052;-70
2022/01/01 02:37:43;;;;;;;78.65;30.92;;;;;;;1.33;100.00;101706.19;5019479;28;20037;-70
2022/01/01 02:40:12;;;;;;;69.05;28.58;;;;;;;1.24;100.00;101695.69;5044176;28;20059;-70
2022/01/01 02:42:42;;;;;;;83.80;30.65;;;;;;;1.14;100.00;101699.56;5049302;28;20059;-70
2022/01/01 02:45:12;;;;;;;74.53;29.27;;;;;;;1.20;100.00;101700.63;5047619;28;20060;-70
2022/01/01 02:47:41;;;;;;;74.15;29.85;;;;;;;1.13;100.00;101700.56;5037462;28;20063;-70
2022/01/01 02:50:10;;;;;;;51.40;27.35;;;;;;;1.22;100.00;101701.28;5043842;28;20503;-70
2022/01/01 02:52:38;;;;;;;58.80;28.40;;;;;;;1.06;100.00;101703.19;5046583;28;20060;-70
2022/01/01 02:55:09;;;;;;;61.20;27.77;;;;;;;1.10;100.00;101694.69;5047092;28;20051;-70
2022/01/01 02:57:37;;;;;;;60.95;29.40;;;;;;;1.07;100.00;101701.31;5047016;28;20052;-70
2022/01/01 03:00:06;;;;;;;64.75;28.00;;;;;;;1.19;100.00;101704.38;5051978;28;20492;-70
2022/01/01 03:02:34;;;;;;;70.70;27.52;;;;;;;1.12;100.00;101706.16;5052170;28;20045;-70
2022/01/01 03:05:02;;;;;;;78.28;28.70;;;;;;;1.15;100.00;101709.31;5052151;28;20046;-70
2022/01/01 03:07:30;;;;;;;63.90;26.35;;;;;;;1.07;100.00;101699.47;5051419;28;20060;-70
2022/01/01 03:09:58;;;;;;;62.00;26.95;;;;;;;1.04;100.00;101697.13;5051908;28;20049;-70
2022/01/01 03:12:26;;;;;;;63.05;26.60;;;;;;;1.01;100.00;101691.28;5051285;28;20412;-70
2022/01/01 03:14:53;;;;;;;69.10;28.42;;;;;;;0.98;100.00;101697.88;5051219;28;20049;-70
2022/01/01 03:17:21;;;;;;;60.92;26.42;;;;;;;0.94;100.00;101713.59;5052218;28;20551;-70
2022/01/01 03:19:49;;;;;;;48.88;26.25;;;;;;;0.93;100.00;101703.03;5050233;28;20052;-70
2022/01/01 03:22:17;;;;;;;55.78;26.67;;;;;;;0.87;100.00;101701.91;5050826;28;20057;-70
2022/01/01 03:24:45;;;;;;;62.38;27.25;;;;;;;0.89;100.00;101699.03;5051557;28;20053;-70
2022/01/01 03:27:13;;;;;;;67.70;27.38;;;;;;;0.97;100.00;101703.47;5051376;28;20045;-70
2022/01/01 03:29:41;;;;;;;49.35;26.30;;;;;;;1.14;100.00;101704.94;5051825;28;20484;-70
2022/01/01 03:32:09;;;;;;;63.67;26.88;;;;;;;1.02;100.00;101699.19;5051742;28;20053;-70
2022/01/01 03:34:37;;;;;;;67.43;26.45;;;;;;;1.06;100.00;101708.56;5043893;28;20056;-70
2022/01/01 03:37:05;;;;;;;56.42;24.10;;;;;;;0.89;100.00;101699.03;5046750;28;20053;-70
2022/01/01 03:39:33;;;;;;;59.75;27.48;;;;;;;0.89;100.00;101694.44;5051497;28;20053;-70
2022/01/01 03:42:01;;;;;;;61.67;27.63;;;;;;;0.96;100.00;101694.53;5050921;28;20048;-70
2022/01/01 03:44:32;;;;;;;55.95;26.08;;;;;;;0.85;100.00;101693.19;5051399;28;20052;-70
2022/01/01 03:47:09;;;;;;;48.38;25.15;;;;;;;0.64;100.00;101700.13;5039088;28;20050;-70
2022/01/01 03:49:39;;;;;;;60.05;25.92;;;;;;;0.57;100.00;101701.91;5023318;28;20056;-70
2022/01/01 03:52:07;;;;;;;60.08;28.75;;;;;;;0.90;100.00;101698.00;5043272;28;20052;-70
2022/01/01 03:54:35;;;;;;;55.83;26.27;;;;;;;0.84;100.00;101696.06;5052969;28;20496;-70
2022/01/01 03:57:03;;;;;;;55.60;26.50;;;;;;;1.19;100.00;101701.66;5055643;28;20057;-70
2022/01/01 03:59:32;;;;;;;73.22;30.48;;;;;;;1.22;100.00;101706.66;5055035;28;20048;-70
2022/01/01 04:02:00;;;;;;;61.55;29.17;;;;;;;1.25;100.00;101709.00;5055201;28;20055;-70
2022/01/01 04:04:29;;;;;;;61.67;27.15;;;;;;;1.27;100.00;101711.53;5053188;28;20058;-70
2022/01/01 04:06:57;;;;;;;54.88;27.85;;;;;;;1.34;100.00;101704.34;5033984;28;20053;-70
2022/01/01 04:09:25;;;;;;;66.13;26.90;;;;;;;1.17;100.00;101701.84;5035180;28;20053;-70
2022/01/01 04:11:53;;;;;;;59.67;27.90;;;;;;;1.34;100.00;101697.09;5036355;28;20053;-70
2022/01/01 04:14:21;;;;;;;55.95;25.85;;;;;;;1.09;100.00;101703.81;5034090;28;20048;-70
2022/01/01 04:16:51;;;;;;;58.17;25.30;;;;;;;1.19;100.00;101698.97;5039834;28;20045;-70
2022/01/01 04:19:25;;;;;;;52.53;25.00;;;;;;;1.03;100.00;101700.03;5054902;28;20431;-70
2022/01/01 04:21:53;;;;;;;76.57;25.65;;;;;;;0.90;100.00;101700.69;5054123;28;20057;-70
2022/01/01 04:24:21;;;;;;;60.72;27.23;;;;;;;0.77;100.00;101702.19;5054460;28;20045;-70
2022/01/01 04:26:50;;;;;;;71.20;24.58;;;;;;;0.66;100.00;101705.34;5040139;28;20068;-70
2022/01/01 04:29:18;;;;;;;55.42;24.50;;;;;;;0.67;100.00;101707.00;5054644;28;20064;-70
2022/01/01 04:31:45;;;;;;;70.60;24.42;;;;;;;0.63;100.00;101714.63;5054812;28;20522;-70
2022/01/01 04:34:13;;;;;;;66.15;24.48;;;;;;;0.60;100.00;101722.25;5053318;28;20045;-70
2022/01/01 04:36:49;;;;;;;48.90;22.40;;;;;;;0.63;100.00;101716.50;5054609;28;20400;-70
2022/01/01 04:39:17;;;;;;;63.92;23.42;;;;;;;0.65;100.00;101714.47;5054189;28;20525;-70
2022/01/01 04:41:44;;;;;;;50.58;23.10;;;;;;;0.70;100.00;101717.44;5050672;28;20060;-70
2022/01/01 04:44:12;;;;;;;53.45;23.30;;;;;;;0.75;100.00;101709.63;5054605;28;20041;-70
2022/01/01 04:46:40;;;;;;;46.47;22.80;;;;;;;0.75;100.00;101703.41;5054086;28;20518;-70
2022/01/01 04:49:08;;;;;;;73.63;24.27;;;;;;;0.93;100.00;101716.50;5054160;28;20064;-70
2022/01/01 04:51:37;;;;;;;49.42;22.95;;;;;;;0.91;100.00;101707.75;5054457;28;20491;-70
2022/01/01 04:54:11;;;;;;;63.47;23.92;;;;;;;0.76;100.00;101714.00;5054119;28;20053;-70
2022/01/01 04:56:43;;;;;;;67.35;24.73;;;;;;;0.73;100.00;101708.16;5054292;28;20049;-70
2022/01/01 04:59:12;;;;;;;68.20;23.25;;;;;;;0.79;100.00;101710.09;5052527;28;20052;-70
2022/01/01 05:01:40;;;;;;;60.50;23.58;;;;;;;0.78;100.00;101717.31;5046813;28;20037;-70
2022/01/01 05:04:09;;;;;;;47.78;23.25;;;;;;;0.91;100.00;101713.13;5054303;28;20053;-70
2022/01/01 05:06:40;;;;;;;50.17;22.52;;;;;;;0.85;100.00;101725.50;5053662;28;20048;-70
2022/01/01 05:09:09;;;;;;;47.88;22.88;;;;;;;0.89;100.00;101724.09;5053667;28;20053;-70
2022/01/01 05:11:37;;;;;;;47.05;23.98;;;;;;;1.07;100.00;101723.72;5039738;28;20051;-70
2022/01/01 05:14:05;;;;;;;51.00;23.73;;;;;;;1.17;100.00;101728.81;5053606;28;20049;-71
2022/01/01 05:16:33;;;;;;;56.03;24.80;;;;;;;1.03;100.00;101727.81;5037924;28;20552;-71
2022/01/01 05:19:01;;;;;;;52.03;24.05;;;;;;;1.03;100.00;101722.41;5052405;28;20048;-71
2022/01/01 05:21:32;;;;;;;57.50;23.05;;;;;;;0.95;100.00;101719.84;5051805;28;20059;-71
2022/01/01 05:24:01;;;;;;;60.40;23.00;;;;;;;0.91;100.00;101707.75;5053652;28;20052;-70
2022/01/01 05:26:29;;;;;;;50.08;23.88;;;;;;;0.87;100.00;101709.16;5053866;28;20055;-71
2022/01/01 05:28:57;;;;;;;45.88;22.65;;;;;;;1.01;100.00;101721.78;5053873;28;20527;-70
2022/01/01 05:31:25;;;;;;;53.42;23.00;;;;;;;1.14;100.00;101712.19;5053440;28;20048;-70
2022/01/01 05:33:55;;;;;;;49.88;21.17;;;;;;;1.16;100.00;101718.22;5050840;28;20052;-70
2022/01/01 05:36:24;;;;;;;52.88;23.65;;;;;;;1.22;100.00;101713.94;5042974;28;20051;-70
2022/01/01 05:38:52;;;;;;;56.42;22.05;;;;;;;0.89;100.00;101712.50;5052981;28;20518;-70
2022/01/01 05:41:19;;;;;;;50.42;21.92;;;;;;;0.93;100.00;101716.50;5053041;28;20057;-70
2022/01/01 05:43:48;;;;;;;52.25;22.20;;;;;;;0.92;100.00;101715.66;5053067;28;20056;-70
2022/01/01 05:46:16;;;;;;;47.63;21.50;;;;;;;0.95;100.00;101717.13;5046598;28;20045;-70
2022/01/01 05:48:44;;;;;;;63.17;23.05;;;;;;;0.95;100.00;101725.22;5053005;28;20048;-70
2022/01/01 05:51:13;;;;;;;52.10;23.50;;;;;;;1.02;100.00;101734.22;5052650;28;20403;-70
2022/01/01 05:53:41;;;;;;;44.60;23.25;;;;;;;1.01;100.00;101734.41;5053002;28;20052;-70
2022/01/01 05:56:09;;;;;;;44.53;23.27;;;;;;;1.17;100.00;101741.47;5052581;28;20427;-70
2022/01/01 05:58:37;;;;;;;49.67;23.58;;;;;;;1.23;100.00;101740.72;5052805;28;20061;-70
2022/01/01 06:01:05;;;;;;;48.67;22.85;;;;;;;1.26;100.00;101742.22;5052513;28;20056;-71
2022/01/01 06:03:33;;;;;;;42.40;21.73;;;;;;;1.23;100.00;101721.84;5052858;28;20408;-70
2022/01/01 06:06:01;;;;;;;44.50;23.05;;;;;;;1.15;100.00;101730.88;5051434;28;20052;-71
2022/01/01 06:08:49;;;;;;;46.15;22.67;;;;;;;1.20;100.00;101733.00;5053115;28;20071;-71
2022/01/01 06:11:16;;;;;;;45.45;21.73;;;;;;;1.01;100.00;101739.81;5038287;28;20057;-71
2022/01/01 06:13:44;;;;;;;51.67;21.83;;;;;;;0.98;100.00;101737.50;5052156;28;20075;-71
2022/01/01 06:16:12;;;;;;;39.88;21.80;;;;;;;0.94;100.00;101726.25;5038513;28;20051;-70
2022/01/01 06:18:40;;;;;;;45.45;23.13;;;;;;;1.25;100.00;101727.03;5040991;28;20041;-71
2022/01/01 06:21:08;;;;;;;47.25;22.27;;;;;;;1.16;100.00;101734.41;5051136;28;20049;-70
2022/01/01 06:23:37;;;;;;;58.95;23.63;;;;;;;1.06;100.00;101740.09;5052238;28;20526;-70
2022/01/01 06:26:06;;;;;;;45.13;21.88;;;;;;;1.05;100.00;101743.81;5052091;28;20399;-70
2022/01/01 06:28:34;;;;;;;44.70;21.70;;;;;;;0.97;100.00;101752.00;5052346;28;20498;-70
2022/01/01 06:31:02;;;;;;;46.50;22.52;;;;;;;0.97;100.00;101760.91;5052142;28;20049;-70
2022/01/01 06:33:30;;;;;;;61.45;22.50;;;;;;;0.91;100.00;101767.91;5052014;28;20056;-70
2022/01/01 06:35:58;;;;;;;45.25;21.92;;;;;;;0.92;100.00;101768.72;5052045;28;20055;-71
2022/01/01 06:38:26;;;;;;;42.90;22.50;;;;;;;1.01;100.00;101773.00;5052594;28;20392;-70
2022/01/01 06:40:54;;;;;;;45.53;21.45;;;;;;;1.05;100.00;101757.28;5051901;28;20045;-70
2022/01/01 06:43:23;;;;;;;45.78;22.35;;;;;;;0.96;100.00;101770.03;5051714;28;20060;-70
2022/01/01 06:45:51;;;;;;;49.65;21.63;;;;;;;0.82;100.00;101779.78;5044021;28;20384;-70
2022/01/01 06:48:19;;;;;;;39.75;20.92;;;;;;;0.79;100.00;101785.56;5051743;28;20048;-70
2022/01/01 06:50:47;;;;;;;40.83;22.08;;;;;;;0.74;100.00;101783.38;5051798;28;20045;-70
2022/01/01 06:53:15;;;;;;;67.97;21.25;;;;;;;0.69;100.00;101785.81;5051807;28;20067;-70
2022/01/01 06:55:44;;;;;;;55.38;21.02;;;;;;;0.65;100.00;101800.69;5051517;28;20052;-70
2022/01/01 06:58:14;;;;;;;62.00;21.98;;;;;;;0.60;100.00;101803.94;5051798;28;20045;-70
2022/01/01 07:00:42;;;;;;;43.60;20.90;;;;;;;0.59;100.00;101802.22;5051595;28;20048;-70
2022/01/01 07:03:10;;;;;;;52.35;21.42;;;;;;;0.60;100.00;101805.78;5051614;28;20496;-70
2022/01/01 07:05:38;;;;;;;44.22;20.42;;;;;;;0.68;100.00;101805.69;5051885;28;20041;-71
2022/01/01 07:08:06;;;;;;;39.92;21.75;;;;;;;0.75;100.00;101814.72;5036654;28;20045;-70
2022/01/01 07:10:34;;;;;;;40.95;20.92;;;;;;;0.76;100.00;101820.94;5051539;28;20053;-70
2022/01/01 07:13:02;;;;;;;40.85;19.77;;;;;;;0.91;100.00;101818.25;5051480;28;20045;-71
2022/01/01 07:15:30;;;;;;;47.47;22.20;;;;;;;0.97;100.00;101831.00;5050359;28;20049;-70
2022/01/01 07:17:58;;;;;;;46.83;21.83;;;;;;;0.74;100.00;101837.28;5039318;28;20050;-71
2022/01/01 07:20:26;;;;;;;48.08;20.17;;;;;;;0.80;100.00;101828.47;5038841;28;20064;-71
2022/01/01 07:22:54;;;;;;;43.53;19.92;;;;;;;0.73;100.00;101832.91;5050985;28;20061;-70
2022/01/01 07:25:22;;;;;;;47.00;21.70;;;;;;;0.82;100.00;101838.25;5050100;28;20048;-70
2022/01/01 07:27:50;;;;;;;45.42;21.13;;;;;;;0.87;100.00;101838.53;5051615;28;20049;-71
2022/01/01 07:30:17;;;;;;;36.80;19.48;;;;;;;0.89;100.00;101844.56;5055793;28;20519;-70
2022/01/01 07:32:49;;;;;;;37.92;20.45;;;;;;;0.92;100.00;101852.28;5055633;28;20125;-71
2022/01/01 07:35:18;;;;;;;38.65;20.92;;;;;;;0.98;100.00;101848.84;5055363;28;20041;-70
2022/01/01 07:37:46;;;;;;;54.65;20.77;;;;;;;1.09;100.00;101855.66;5055095;28;20527;-71
2022/01/01 07:40:17;;;;;;;42.72;19.65;;;;;;;0.97;100.00;101863.34;5055720;28;20049;-70
2022/01/01 07:42:46;;;;;;;40.72;21.17;;;;;;;1.10;100.00;101859.16;5054825;28;20053;-70
2022/01/01 07:45:15;;;;;;;35.70;18.13;;;;;;;0.97;100.00;101862.53;5055739;28;20049;-71
2022/01/01 07:47:44;;;;;;;41.83;18.58;;;;;;;0.86;100.00;101871.88;5051706;28;20509;-70
2022/01/01 07:50:11;;;;;;;36.95;20.08;;;;;;;0.83;100.00;101878.47;5055268;28;20068;-70
2022/01/01 07:52:40;;;;;;;35.90;19.17;;;;;;;0.94;100.00;101882.59;5055078;28;20045;-71
2022/01/01 07:55:09;;;;;;;35.35;20.10;;;;;;;1.39;100.00;101889.88;5053757;28;20056;-71
2022/01/01 07:57:37;;;;;;;48.38;21.15;;;;;;;1.53;100.00;101883.66;5055717;28;20511;-71
2022/01/01 08:00:07;;;;;;;39.33;20.27;;;;;;;1.03;100.00;101894.97;5055065;28;20526;-71
2022/01/01 08:02:46;;;;;;;39.22;19.65;;;;;;;0.92;100.00;101881.94;5050511;28;20500;-71
2022/01/01 08:05:19;;;;;;;41.75;20.65;;;;;;;1.13;100.00;101893.88;5037833;28;20045;-71
2022/01/01 08:07:46;;;;;;;37.83;18.33;;;;;;;1.29;100.00;101898.25;5050207;28;20081;-71
2022/01/01 08:10:31;;;;;;;40.28;18.85;;;;;;;1.41;100.00;101895.94;5049139;28;20037;-71
2022/01/01 08:12:59;;;;;;;41.65;19.02;;;;;;;1.22;100.00;101908.94;5045867;28;20057;-71
2022/01/01 08:15:28;;;;;;;55.42;21.27;;;;;;;1.31;100.00;101891.66;5047832;28;20049;-71
2022/01/01 08:17:56;;;;;;;38.60;20.35;;;;;;;1.24;100.00;101890.72;5044752;28;20511;-71
2022/01/01 08:20:33;;;;;;;38.25;18.70;;;;;;;1.35;100.00;101897.50;5042306;28;20060;-71
2022/01/01 08:23:00;;;;;;;40.63;19.75;;;;;;;1.22;100.00;101903.53;5045020;28;20844;-71
2022/01/01 08:25:28;;;;;;;42.58;18.83;;;;;;;1.23;100.00;101899.00;5054708;28;20037;-71
2022/01/01 08:27:56;;;;;;;41.85;20.88;;;;;;;1.32;100.00;101906.81;5054233;28;20037;-71
2022/01/01 08:30:24;;;;;;;39.58;19.70;;;;;;;1.31;100.00;101899.75;5054545;28;20048;-71
2022/01/01 08:32:53;;;;;;;35.55;18.55;;;;;;;1.26;100.00;101895.94;5042761;28;20377;-71
2022/01/01 08:35:21;;;;;;;44.88;18.70;;;;;;;1.31;100.00;101893.50;5036959;28;20512;-71
2022/01/01 08:37:48;;;;;;;36.33;20.08;;;;;;;1.28;100.00;101889.31;5054200;28;20052;-71
2022/01/01 08:40:16;;;;;;;35.90;18.30;;;;;;;1.22;100.00;101889.22;5053316;28;20052;-71
2022/01/01 08:42:44;;;;;;;36.03;19.05;;;;;;;1.51;100.00;101885.69;5043697;28;20048;-70
2022/01/01 08:45:12;;;;;;;38.85;18.80;;;;;;;1.26;100.00;101882.47;5035143;28;20046;-71
2022/01/01 08:47:41;;;;;;;54.33;19.40;;;;;;;1.28;100.00;101881.22;5027904;28;20381;-71
2022/01/01 08:50:09;;;;;;;52.55;21.48;;;;;;;1.47;100.00;101879.84;5050154;28;20100;-71
2022/01/01 08:52:37;;;;;;;39.45;19.27;;;;;;;1.49;100.00;101885.06;5047662;28;20061;-71
2022/01/01 08:55:06;;;;;;;44.85;19.45;;;;;;;1.47;100.00;101890.63;5049217;28;20518;-71
2022/01/01 08:57:35;;;;;;;38.70;18.27;;;;;;;1.58;100.00;101885.78;5044609;28;20503;-71
2022/01/01 09:00:08;;;;;;;35.97;18.10;;;;;;;1.55;100.00;101891.53;5039057;28;20393;-71
2022/01/01 09:02:37;;;;;;;39.20;19.15;;;;;;;1.50;100.00;101894.81;5038802;28;20053;-71
2022/01/01 09:05:05;;;;;;;35.53;19.45;;;;;;;1.44;100.00;101890.16;5038909;28;20045;-71
2022/01/01 09:07:33;;;;;;;37.30;19.20;;;;;;;1.70;100.00;101886.13;5040393;28;20050;-71
2022/01/01 09:10:04;;;;;;;37.45;19.35;;;;;;;1.57;100.00;101884.94;5042481;28;20041;-71
2022/01/01 09:12:32;;;;;;;36.42;18.92;;;;;;;1.75;100.00;101891.81;5035110;28;20056;-71
2022/01/01 09:15:00;;;;;;;28.85;17.05;;;;;;;1.87;100.00;101890.28;5034600;28;20053;-71
2022/01/01 09:17:28;;;;;;;36.28;18.70;;;;;;;2.00;100.00;101884.22;5047180;28;20060;-71
2022/01/01 09:19:56;;;;;;;42.30;20.17;;;;;;;2.32;100.00;101894.75;5032313;28;20033;-71
2022/01/01 09:22:25;;;;;;;32.60;18.25;;;;;;;2.08;100.00;101894.09;5033193;28;20049;-71
2022/01/01 09:24:53;;;;;;;33.15;19.40;;;;;;;2.08;100.00;101893.22;5053611;28;20047;-71
2022/01/01 09:27:21;;;;;;;31.73;19.25;;;;;;;2.35;100.00;101897.06;5045047;28;20519;-72
2022/01/01 09:29:50;;;;;;;32.75;18.23;;;;;;;2.40;100.00;101905.41;5037213;28;20036;-72
2022/01/01 09:32:20;;;;;;;38.63;19.00;;;;;;;2.42;100.00;101908.78;5043186;28;20049;-72
2022/01/01 09:34:48;;;;;;;30.63;18.45;;;;;;;2.53;100.00;101901.19;5043105;28;20072;-71
2022/01/01 09:37:18;;;;;;;33.78;19.42;;;;;;;2.75;100.00;101902.03;5054045;28;20045;-74
2022/01/01 09:40:03;;;;;;;34.25;20.17;;;;;;;2.34;100.00;101899.97;5040387;28;20044;-75
2022/01/01 09:42:36;;;;;;;32.45;20.05;;;;;;;2.39;100.00;101914.56;5041675;28;20057;-75
2022/01/01 09:45:06;;;;;;;35.92;20.27;;;;;;;2.35;100.00;101917.84;5040077;28;20053;-75
2022/01/01 09:47:35;;;;;;;37.53;20.30;;;;;;;2.40;100.00;101908.13;5049030;28;20053;-75
2022/01/01 09:50:07;;;;;;;32.65;20.80;;;;;;;2.26;100.00;101912.53;5042694;28;20040;-75
2022/01/01 09:52:36;;;;;;;31.38;19.50;;;;;;;2.30;100.00;101920.28;5016980;28;20377;-76
2022/01/01 09:55:05;;;;;;;37.97;20.98;;;;;;;2.59;100.00;101919.31;5031596;28;20046;-76
2022/01/01 09:57:33;;;;;;;38.45;21.33;;;;;;;2.97;100.00;101922.78;5032503;28;20044;-76
2022/01/01 10:00:01;;;;;;;40.30;24.85;;;;;;;2.90;100.00;101920.03;5032475;28;20045;-76
2022/01/01 10:02:31;;;;;;;36.75;19.38;;;;;;;2.97;100.00;101907.38;5033012;28;20522;-75
2022/01/01 10:05:04;;;;;;;32.72;19.40;;;;;;;3.01;100.00;101913.22;5030487;28;20060;-73
2022/01/01 10:07:32;;;;;;;35.15;20.13;;;;;;;2.95;100.00;101926.50;5031438;28;20042;-75
2022/01/01 10:10:19;;;;;;;31.80;19.35;;;;;;;3.20;100.00;101919.84;5030982;28;20045;-75
2022/01/01 10:12:47;;;;;;;31.20;19.73;;;;;;;3.22;100.00;101913.19;5031654;28;20038;-73
2022/01/01 10:15:17;;;;;;;35.15;21.20;;;;;;;3.31;100.00;101910.31;5033187;28;20053;-72
2022/01/01 10:17:47;;;;;;;28.58;18.55;;;;;;;3.22;100.00;101907.78;5029762;28;20048;-72
2022/01/01 10:20:15;;;;;;;34.40;19.88;;;;;;;2.92;100.00;101905.28;5039709;28;20057;-73
2022/01/01 10:22:50;;;;;;;31.85;20.13;;;;;;;3.32;100.00;101896.59;5046457;28;20415;-73
2022/01/01 10:28:05;;;;;;;38.38;19.50;;;;;;;3.20;100.00;101892.78;5037547;28;20049;-73
2022/01/01 10:30:36;;;;;;;32.88;20.83;;;;;;;3.31;100.00;101894.94;5045464;28;20053;-72
2022/01/01 10:33:12;;;;;;;34.40;20.23;;;;;;;3.56;100.00;101899.84;5031734;28;20041;-72
2022/01/01 10:35:44;;;;;;;34.45;22.02;;;;;;;3.86;100.00;101896.06;5050248;28;20045;-72
2022/01/01 10:38:26;;;;;;;36.00;21.42;;;;;;;3.85;100.00;101894.34;5039207;28;20065;-73
2022/01/01 10:41:10;;;;;;;32.90;22.02;;;;;;;3.62;100.00;101890.94;5024844;28;20381;-72
2022/01/01 10:43:41;;;;;;;37.85;22.17;;;;;;;3.39;100.00;101902.06;5026084;28;20377;-72
2022/01/01 10:46:15;;;;;;;37.13;21.27;;;;;;;3.44;100.00;101893.34;5032997;28;20049;-75
2022/01/01 10:51:12;;;;;;;32.17;20.95;;;;;;;3.81;100.00;101893.13;5037758;28;20052;-76
2022/01/01 10:53:40;;;;;;;39.95;22.83;;;;;;;4.06;100.00;101893.38;5035774;28;20049;-76
2022/01/01 10:56:22;;;;;;;39.38;24.75;;;;;;;3.84;100.00;101898.97;5029727;28;20056;-75
2022/01/01 10:59:00;;;;;;;39.83;24.00;;;;;;;3.77;100.00;101892.69;5037795;28;20389;-77
2022/01/01 11:01:28;;;;;;;35.67;22.13;;;;;;;4.07;100.00;101891.53;5034864;28;20037;-77
2022/01/01 11:03:57;;;;;;;33.53;21.88;;;;;;;3.97;100.00;101887.31;5042145;28;20404;-77
2022/01/01 11:06:25;;;;;;;38.55;22.50;;;;;;;3.99;100.00;101890.69;5040734;28;20060;-77
2022/01/01 11:08:53;;;;;;;36.88;22.27;;;;;;;4.10;100.00;101881.13;5037608;28;20045;-78
2022/01/01 11:11:21;;;;;;;37.28;23.13;;;;;;;4.06;100.00;101890.69;5051503;28;20049;-76
2022/01/01 11:13:51;;;;;;;41.60;23.92;;;;;;;4.22;100.00;101892.22;5051300;28;20044;-76
2022/01/01 11:16:19;;;;;;;40.00;23.15;;;;;;;4.24;100.00;101881.13;5049808;28;20067;-77
2022/01/01 11:18:49;;;;;;;34.97;22.70;;;;;;;4.43;100.00;101890.34;5043485;28;21150;-76
2022/01/01 11:21:18;;;;;;;40.47;24.15;;;;;;;4.47;100.00;101888.91;5039848;28;20049;-77
2022/01/01 11:23:48;;;;;;;41.33;24.35;;;;;;;4.32;100.00;101886.38;5046191;28;20136;-76
2022/01/01 11:26:17;;;;;;;41.00;23.92;;;;;;;4.19;100.00;101878.25;5051280;28;20041;-77